sensor_id;sensor_type;location;lat;lon;timestamp;temperature;humidity
39881;DHT22;25554;44.954;10.068;2023-10-31T00:02:11;17.50;99.90
39881;DHT22;25554;44.954;10.068;2023-10-31T00:04:37;17.40;99.90
39881;DHT22;25554;44.954;10.068;2023-10-31T00:07:04;17.40;99.90
39881;DHT22;25554;44.954;10.068;2023-10-31T00:09:30;17.30;99.90
39881;DHT22;25554;44.954;10.068;2023-10-31T00:11:57;17.20;99.90
39881;DHT22;25554;44.954;10.068;2023-10-31T00:14:24;17.20;99.90
39881;DHT22;25554;44.954;10.068;2023-10-31T00:16:50;17.10;99.90
39881;DHT22;25554;44.954;10.068;2023-10-31T00:19:16;17.10;99.90
39881;DHT22;25554;44.954;10.068;2023-10-31T00:21:42;17.10;99.90
39881;DHT22;25554;44.954;10.068;2023-10-31T00:24:09;17.10;99.90
39881;DHT22;25554;44.954;10.068;2023-10-31T00:26:35;17.30;99.90
39881;DHT22;25554;44.954;10.068;2023-10-31T00:29:01;17.60;99.90
39881;DHT22;25554;44.954;10.068;2023-10-31T00:31:28;17.80;99.90
39881;DHT22;25554;44.954;10.068;2023-10-31T00:33:54;18.00;99.90
39881;DHT22;25554;44.954;10.068;2023-10-31T00:36:21;18.00;99.90
39881;DHT22;25554;44.954;10.068;2023-10-31T00:38:47;18.00;99.90
39881;DHT22;25554;44.954;10.068;2023-10-31T00:41:14;18.00;99.90
39881;DHT22;25554;44.954;10.068;2023-10-31T00:43:40;18.00;99.90
39881;DHT22;25554;44.954;10.068;2023-10-31T00:46:06;18.00;99.90
39881;DHT22;25554;44.954;10.068;2023-10-31T00:48:32;18.10;99.90
39881;DHT22;25554;44.954;10.068;2023-10-31T00:51:03;18.10;99.90
39881;DHT22;25554;44.954;10.068;2023-10-31T00:53:30;18.10;99.90
39881;DHT22;25554;44.954;10.068;2023-10-31T00:55:56;18.10;99.90
39881;DHT22;25554;44.954;10.068;2023-10-31T00:58:22;18.10;99.90
39881;DHT22;25554;44.954;10.068;2023-10-31T01:00:48;18.00;99.90
39881;DHT22;25554;44.954;10.068;2023-10-31T01:03:15;18.00;99.90
39881;DHT22;25554;44.954;10.068;2023-10-31T01:05:41;18.00;99.90
39881;DHT22;25554;44.954;10.068;2023-10-31T01:08:07;18.00;99.90
39881;DHT22;25554;44.954;10.068;2023-10-31T01:10:33;18.00;99.90
39881;DHT22;25554;44.954;10.068;2023-10-31T01:13:00;17.80;99.90
39881;DHT22;25554;44.954;10.068;2023-10-31T01:15:26;17.70;99.90
39881;DHT22;25554;44.954;10.068;2023-10-31T01:17:52;17.70;99.90
39881;DHT22;25554;44.954;10.068;2023-10-31T01:20:19;17.60;99.90
39881;DHT22;25554;44.954;10.068;2023-10-31T01:22:45;17.60;99.90
39881;DHT22;25554;44.954;10.068;2023-10-31T01:25:11;17.60;99.90
39881;DHT22;25554;44.954;10.068;2023-10-31T01:27:37;17.60;99.90
39881;DHT22;25554;44.954;10.068;2023-10-31T01:30:04;17.50;99.90
39881;DHT22;25554;44.954;10.068;2023-10-31T01:32:30;17.80;99.90
39881;DHT22;25554;44.954;10.068;2023-10-31T01:34:56;18.10;99.90
39881;DHT22;25554;44.954;10.068;2023-10-31T01:37:23;18.20;99.90
39881;DHT22;25554;44.954;10.068;2023-10-31T01:39:49;18.30;99.90
39881;DHT22;25554;44.954;10.068;2023-10-31T01:42:16;18.30;99.90
39881;DHT22;25554;44.954;10.068;2023-10-31T01:44:43;18.00;99.90
39881;DHT22;25554;44.954;10.068;2023-10-31T01:47:09;17.80;99.90
39881;DHT22;25554;44.954;10.068;2023-10-31T01:49:36;17.50;99.90
39881;DHT22;25554;44.954;10.068;2023-10-31T01:52:04;17.20;99.90
39881;DHT22;25554;44.954;10.068;2023-10-31T01:54:33;16.90;99.90
39881;DHT22;25554;44.954;10.068;2023-10-31T01:57:02;16.80;99.90
39881;DHT22;25554;44.954;10.068;2023-10-31T01:59:28;16.70;99.90
39881;DHT22;25554;44.954;10.068;2023-10-31T02:01:55;16.60;99.90
39881;DHT22;25554;44.954;10.068;2023-10-31T02:04:26;16.50;99.90
39881;DHT22;25554;44.954;10.068;2023-10-31T02:06:52;16.30;99.90
39881;DHT22;25554;44.954;10.068;2023-10-31T02:09:19;16.40;99.90
39881;DHT22;25554;44.954;10.068;2023-10-31T02:11:50;16.10;99.90
39881;DHT22;25554;44.954;10.068;2023-10-31T02:14:16;16.00;99.90
39881;DHT22;25554;44.954;10.068;2023-10-31T02:16:43;15.90;99.90
39881;DHT22;25554;44.954;10.068;2023-10-31T02:19:10;15.80;99.90
39881;DHT22;25554;44.954;10.068;2023-10-31T02:21:39;15.70;99.90
39881;DHT22;25554;44.954;10.068;2023-10-31T02:24:06;15.70;99.90
39881;DHT22;25554;44.954;10.068;2023-10-31T02:26:34;15.60;99.90
39881;DHT22;25554;44.954;10.068;2023-10-31T02:29:01;15.60;99.90
39881;DHT22;25554;44.954;10.068;2023-10-31T02:31:28;15.50;99.90
39881;DHT22;25554;44.954;10.068;2023-10-31T02:33:55;15.50;99.90
39881;DHT22;25554;44.954;10.068;2023-10-31T02:36:21;15.40;99.90
39881;DHT22;25554;44.954;10.068;2023-10-31T02:38:48;15.50;99.90
39881;DHT22;25554;44.954;10.068;2023-10-31T02:41:14;15.40;99.90
39881;DHT22;25554;44.954;10.068;2023-10-31T02:43:41;15.50;99.90
39881;DHT22;25554;44.954;10.068;2023-10-31T02:46:08;15.60;99.90
39881;DHT22;25554;44.954;10.068;2023-10-31T02:48:36;15.80;99.90
39881;DHT22;25554;44.954;10.068;2023-10-31T02:51:07;15.80;99.90
39881;DHT22;25554;44.954;10.068;2023-10-31T02:53:34;15.80;99.90
39881;DHT22;25554;44.954;10.068;2023-10-31T02:56:02;15.80;99.90
39881;DHT22;25554;44.954;10.068;2023-10-31T02:58:29;15.90;99.90
39881;DHT22;25554;44.954;10.068;2023-10-31T03:00:55;16.00;99.90
39881;DHT22;25554;44.954;10.068;2023-10-31T03:03:21;16.00;99.90
39881;DHT22;25554;44.954;10.068;2023-10-31T03:05:48;15.90;99.90
39881;DHT22;25554;44.954;10.068;2023-10-31T03:08:15;15.90;99.90
39881;DHT22;25554;44.954;10.068;2023-10-31T03:10:48;16.00;99.90
39881;DHT22;25554;44.954;10.068;2023-10-31T03:13:19;16.00;99.90
39881;DHT22;25554;44.954;10.068;2023-10-31T03:15:46;16.10;99.90
39881;DHT22;25554;44.954;10.068;2023-10-31T03:18:13;16.10;99.90
39881;DHT22;25554;44.954;10.068;2023-10-31T03:20:46;16.10;99.90
39881;DHT22;25554;44.954;10.068;2023-10-31T03:23:13;15.80;99.90
39881;DHT22;25554;44.954;10.068;2023-10-31T03:25:39;16.00;99.90
39881;DHT22;25554;44.954;10.068;2023-10-31T03:28:19;15.90;99.90
39881;DHT22;25554;44.954;10.068;2023-10-31T03:30:47;15.80;99.90
39881;DHT22;25554;44.954;10.068;2023-10-31T03:33:14;15.80;99.90
39881;DHT22;25554;44.954;10.068;2023-10-31T03:35:41;15.80;99.90
39881;DHT22;25554;44.954;10.068;2023-10-31T03:38:07;15.70;99.90
39881;DHT22;25554;44.954;10.068;2023-10-31T03:40:34;15.70;99.90
39881;DHT22;25554;44.954;10.068;2023-10-31T03:43:00;15.60;99.90
39881;DHT22;25554;44.954;10.068;2023-10-31T03:45:27;15.50;99.90
39881;DHT22;25554;44.954;10.068;2023-10-31T03:47:53;15.50;99.90
39881;DHT22;25554;44.954;10.068;2023-10-31T03:50:19;15.40;99.90
39881;DHT22;25554;44.954;10.068;2023-10-31T03:52:46;15.30;99.90
39881;DHT22;25554;44.954;10.068;2023-10-31T03:55:13;15.30;99.90
39881;DHT22;25554;44.954;10.068;2023-10-31T03:57:39;15.30;99.90
39881;DHT22;25554;44.954;10.068;2023-10-31T04:00:06;15.30;99.90
39881;DHT22;25554;44.954;10.068;2023-10-31T04:02:40;15.40;99.90
39881;DHT22;25554;44.954;10.068;2023-10-31T04:05:08;15.30;99.90
39881;DHT22;25554;44.954;10.068;2023-10-31T04:07:35;15.30;99.90
39881;DHT22;25554;44.954;10.068;2023-10-31T04:10:01;15.20;99.90
39881;DHT22;25554;44.954;10.068;2023-10-31T04:12:29;15.10;99.90
39881;DHT22;25554;44.954;10.068;2023-10-31T04:14:55;15.10;99.90
39881;DHT22;25554;44.954;10.068;2023-10-31T04:17:21;15.00;99.90
39881;DHT22;25554;44.954;10.068;2023-10-31T04:19:48;14.90;99.90
39881;DHT22;25554;44.954;10.068;2023-10-31T04:22:14;14.80;99.90
39881;DHT22;25554;44.954;10.068;2023-10-31T04:24:40;14.80;99.90
39881;DHT22;25554;44.954;10.068;2023-10-31T04:27:07;14.70;99.90
39881;DHT22;25554;44.954;10.068;2023-10-31T04:29:33;14.80;99.90
39881;DHT22;25554;44.954;10.068;2023-10-31T04:31:59;14.80;99.90
39881;DHT22;25554;44.954;10.068;2023-10-31T04:34:25;14.90;99.90
39881;DHT22;25554;44.954;10.068;2023-10-31T04:36:52;15.10;99.90
39881;DHT22;25554;44.954;10.068;2023-10-31T04:39:18;15.30;99.90
39881;DHT22;25554;44.954;10.068;2023-10-31T04:41:44;15.60;99.90
39881;DHT22;25554;44.954;10.068;2023-10-31T04:44:11;15.80;99.90
39881;DHT22;25554;44.954;10.068;2023-10-31T04:46:37;15.90;99.90
39881;DHT22;25554;44.954;10.068;2023-10-31T04:49:03;16.00;99.90
39881;DHT22;25554;44.954;10.068;2023-10-31T04:51:33;16.20;99.90
39881;DHT22;25554;44.954;10.068;2023-10-31T04:54:00;16.20;99.90
39881;DHT22;25554;44.954;10.068;2023-10-31T04:56:27;16.10;99.90
39881;DHT22;25554;44.954;10.068;2023-10-31T04:58:53;16.00;99.90
39881;DHT22;25554;44.954;10.068;2023-10-31T05:01:19;15.80;99.90
39881;DHT22;25554;44.954;10.068;2023-10-31T05:03:46;15.70;99.90
39881;DHT22;25554;44.954;10.068;2023-10-31T05:06:12;16.10;99.90
39881;DHT22;25554;44.954;10.068;2023-10-31T05:08:38;16.30;99.90
39881;DHT22;25554;44.954;10.068;2023-10-31T05:11:05;16.50;99.90
39881;DHT22;25554;44.954;10.068;2023-10-31T05:13:31;16.80;99.90
39881;DHT22;25554;44.954;10.068;2023-10-31T05:15:58;16.80;99.90
39881;DHT22;25554;44.954;10.068;2023-10-31T05:18:24;16.80;99.90
39881;DHT22;25554;44.954;10.068;2023-10-31T05:20:51;16.80;99.90
39881;DHT22;25554;44.954;10.068;2023-10-31T05:23:17;16.70;99.90
39881;DHT22;25554;44.954;10.068;2023-10-31T05:25:43;16.50;99.90
39881;DHT22;25554;44.954;10.068;2023-10-31T05:28:10;16.40;99.90
39881;DHT22;25554;44.954;10.068;2023-10-31T05:30:36;16.30;99.90
39881;DHT22;25554;44.954;10.068;2023-10-31T05:33:03;16.30;99.90
39881;DHT22;25554;44.954;10.068;2023-10-31T05:35:29;16.40;99.90
39881;DHT22;25554;44.954;10.068;2023-10-31T05:37:55;16.50;99.90
39881;DHT22;25554;44.954;10.068;2023-10-31T05:40:22;16.50;99.90
39881;DHT22;25554;44.954;10.068;2023-10-31T05:42:50;16.40;99.90
39881;DHT22;25554;44.954;10.068;2023-10-31T05:45:17;16.10;99.90
39881;DHT22;25554;44.954;10.068;2023-10-31T05:47:43;16.00;99.90
39881;DHT22;25554;44.954;10.068;2023-10-31T05:50:09;15.80;99.90
39881;DHT22;25554;44.954;10.068;2023-10-31T05:52:36;15.80;99.90
39881;DHT22;25554;44.954;10.068;2023-10-31T05:55:02;15.20;99.90
39881;DHT22;25554;44.954;10.068;2023-10-31T05:57:29;14.90;99.90
39881;DHT22;25554;44.954;10.068;2023-10-31T05:59:55;14.60;99.90
39881;DHT22;25554;44.954;10.068;2023-10-31T06:02:21;14.30;99.90
39881;DHT22;25554;44.954;10.068;2023-10-31T06:04:47;14.10;99.90
39881;DHT22;25554;44.954;10.068;2023-10-31T06:07:14;14.00;99.90
39881;DHT22;25554;44.954;10.068;2023-10-31T06:09:40;13.90;99.90
39881;DHT22;25554;44.954;10.068;2023-10-31T06:12:06;13.80;99.90
39881;DHT22;25554;44.954;10.068;2023-10-31T06:14:33;13.60;99.90
39881;DHT22;25554;44.954;10.068;2023-10-31T06:16:59;13.50;99.90
39881;DHT22;25554;44.954;10.068;2023-10-31T06:19:27;13.30;99.90
39881;DHT22;25554;44.954;10.068;2023-10-31T06:21:53;13.30;99.90
39881;DHT22;25554;44.954;10.068;2023-10-31T06:24:19;13.20;99.90
39881;DHT22;25554;44.954;10.068;2023-10-31T06:26:46;13.20;99.90
39881;DHT22;25554;44.954;10.068;2023-10-31T06:29:12;13.10;99.90
39881;DHT22;25554;44.954;10.068;2023-10-31T06:31:38;13.10;99.90
39881;DHT22;25554;44.954;10.068;2023-10-31T06:34:05;13.00;99.90
39881;DHT22;25554;44.954;10.068;2023-10-31T06:36:31;12.90;99.90
39881;DHT22;25554;44.954;10.068;2023-10-31T06:38:57;12.90;99.90
39881;DHT22;25554;44.954;10.068;2023-10-31T06:41:24;12.80;99.90
39881;DHT22;25554;44.954;10.068;2023-10-31T06:43:51;12.70;99.90
39881;DHT22;25554;44.954;10.068;2023-10-31T06:46:17;12.60;99.90
39881;DHT22;25554;44.954;10.068;2023-10-31T06:48:43;12.50;99.90
39881;DHT22;25554;44.954;10.068;2023-10-31T06:51:09;12.50;99.90
39881;DHT22;25554;44.954;10.068;2023-10-31T06:53:36;12.50;99.90
39881;DHT22;25554;44.954;10.068;2023-10-31T06:56:02;12.50;99.90
39881;DHT22;25554;44.954;10.068;2023-10-31T06:58:28;12.50;99.90
39881;DHT22;25554;44.954;10.068;2023-10-31T07:00:55;12.60;99.90
39881;DHT22;25554;44.954;10.068;2023-10-31T07:03:24;12.70;99.90
39881;DHT22;25554;44.954;10.068;2023-10-31T07:05:50;12.70;99.90
39881;DHT22;25554;44.954;10.068;2023-10-31T07:08:17;12.70;99.90
39881;DHT22;25554;44.954;10.068;2023-10-31T07:10:43;12.80;99.90
39881;DHT22;25554;44.954;10.068;2023-10-31T07:13:10;12.80;99.90
39881;DHT22;25554;44.954;10.068;2023-10-31T07:15:36;12.90;99.90
39881;DHT22;25554;44.954;10.068;2023-10-31T07:18:05;13.00;99.90
39881;DHT22;25554;44.954;10.068;2023-10-31T07:20:35;13.10;99.90
39881;DHT22;25554;44.954;10.068;2023-10-31T07:23:01;13.10;99.90
39881;DHT22;25554;44.954;10.068;2023-10-31T07:25:27;13.10;99.90
39881;DHT22;25554;44.954;10.068;2023-10-31T07:27:54;13.10;99.90
39881;DHT22;25554;44.954;10.068;2023-10-31T07:30:20;13.20;99.90
39881;DHT22;25554;44.954;10.068;2023-10-31T07:32:46;13.30;99.90
39881;DHT22;25554;44.954;10.068;2023-10-31T07:35:12;13.40;99.90
39881;DHT22;25554;44.954;10.068;2023-10-31T07:37:39;13.60;99.90
39881;DHT22;25554;44.954;10.068;2023-10-31T07:40:05;13.70;99.90
39881;DHT22;25554;44.954;10.068;2023-10-31T07:42:32;13.90;99.90
39881;DHT22;25554;44.954;10.068;2023-10-31T07:44:58;14.10;99.90
39881;DHT22;25554;44.954;10.068;2023-10-31T07:47:24;14.10;99.90
39881;DHT22;25554;44.954;10.068;2023-10-31T07:49:51;14.10;99.90
39881;DHT22;25554;44.954;10.068;2023-10-31T07:52:19;14.20;99.90
39881;DHT22;25554;44.954;10.068;2023-10-31T07:54:45;14.30;99.90
39881;DHT22;25554;44.954;10.068;2023-10-31T07:57:12;14.50;99.90
39881;DHT22;25554;44.954;10.068;2023-10-31T07:59:38;14.30;99.90
39881;DHT22;25554;44.954;10.068;2023-10-31T08:02:04;14.30;99.90
39881;DHT22;25554;44.954;10.068;2023-10-31T08:04:31;14.20;99.90
39881;DHT22;25554;44.954;10.068;2023-10-31T08:06:57;14.10;99.90
39881;DHT22;25554;44.954;10.068;2023-10-31T08:09:23;14.00;99.90
39881;DHT22;25554;44.954;10.068;2023-10-31T08:11:49;13.90;99.90
39881;DHT22;25554;44.954;10.068;2023-10-31T08:14:16;13.80;99.90
39881;DHT22;25554;44.954;10.068;2023-10-31T08:16:42;13.90;99.90
39881;DHT22;25554;44.954;10.068;2023-10-31T08:19:08;13.90;99.90
39881;DHT22;25554;44.954;10.068;2023-10-31T08:21:35;14.00;99.90
39881;DHT22;25554;44.954;10.068;2023-10-31T08:24:02;14.00;99.90
39881;DHT22;25554;44.954;10.068;2023-10-31T08:26:30;14.10;99.90
39881;DHT22;25554;44.954;10.068;2023-10-31T08:28:56;14.00;99.90
39881;DHT22;25554;44.954;10.068;2023-10-31T08:31:22;14.10;99.90
39881;DHT22;25554;44.954;10.068;2023-10-31T08:33:49;14.10;99.90
39881;DHT22;25554;44.954;10.068;2023-10-31T08:36:15;14.10;99.90
39881;DHT22;25554;44.954;10.068;2023-10-31T08:38:41;14.00;99.90
39881;DHT22;25554;44.954;10.068;2023-10-31T08:41:08;14.00;99.90
39881;DHT22;25554;44.954;10.068;2023-10-31T08:43:34;14.00;99.90
39881;DHT22;25554;44.954;10.068;2023-10-31T08:46:01;14.00;99.90
39881;DHT22;25554;44.954;10.068;2023-10-31T08:48:27;14.10;99.90
39881;DHT22;25554;44.954;10.068;2023-10-31T08:50:53;14.20;99.90
39881;DHT22;25554;44.954;10.068;2023-10-31T08:53:19;14.30;99.90
39881;DHT22;25554;44.954;10.068;2023-10-31T08:55:46;14.40;99.90
39881;DHT22;25554;44.954;10.068;2023-10-31T08:58:13;14.50;99.90
39881;DHT22;25554;44.954;10.068;2023-10-31T09:00:40;14.60;99.90
39881;DHT22;25554;44.954;10.068;2023-10-31T09:03:09;14.70;99.90
39881;DHT22;25554;44.954;10.068;2023-10-31T09:05:35;14.80;99.90
39881;DHT22;25554;44.954;10.068;2023-10-31T09:08:01;15.00;99.90
39881;DHT22;25554;44.954;10.068;2023-10-31T09:10:28;15.20;99.90
39881;DHT22;25554;44.954;10.068;2023-10-31T09:12:54;15.30;99.90
39881;DHT22;25554;44.954;10.068;2023-10-31T09:15:20;15.40;99.90
39881;DHT22;25554;44.954;10.068;2023-10-31T09:17:47;15.50;99.90
39881;DHT22;25554;44.954;10.068;2023-10-31T09:20:13;15.50;99.90
39881;DHT22;25554;44.954;10.068;2023-10-31T09:22:40;15.60;99.90
39881;DHT22;25554;44.954;10.068;2023-10-31T09:25:06;15.80;99.90
39881;DHT22;25554;44.954;10.068;2023-10-31T09:27:32;15.80;99.90
39881;DHT22;25554;44.954;10.068;2023-10-31T09:29:59;15.90;99.90
39881;DHT22;25554;44.954;10.068;2023-10-31T09:32:25;16.00;99.90
39881;DHT22;25554;44.954;10.068;2023-10-31T09:34:52;16.10;99.90
39881;DHT22;25554;44.954;10.068;2023-10-31T09:37:18;16.10;99.90
39881;DHT22;25554;44.954;10.068;2023-10-31T09:39:44;16.20;99.90
39881;DHT22;25554;44.954;10.068;2023-10-31T09:42:10;16.20;99.90
39881;DHT22;25554;44.954;10.068;2023-10-31T09:44:37;16.20;99.90
39881;DHT22;25554;44.954;10.068;2023-10-31T09:47:03;16.20;99.90
39881;DHT22;25554;44.954;10.068;2023-10-31T09:49:31;16.20;99.90
39881;DHT22;25554;44.954;10.068;2023-10-31T09:51:58;16.30;99.90
39881;DHT22;25554;44.954;10.068;2023-10-31T09:54:26;16.30;99.90
39881;DHT22;25554;44.954;10.068;2023-10-31T09:56:53;16.30;99.90
39881;DHT22;25554;44.954;10.068;2023-10-31T09:59:19;16.40;99.90
39881;DHT22;25554;44.954;10.068;2023-10-31T10:01:46;16.50;99.90
39881;DHT22;25554;44.954;10.068;2023-10-31T10:04:12;16.50;99.90
39881;DHT22;25554;44.954;10.068;2023-10-31T10:07:18;16.70;99.90
39881;DHT22;25554;44.954;10.068;2023-10-31T10:09:45;16.70;99.90
39881;DHT22;25554;44.954;10.068;2023-10-31T10:12:13;16.80;99.90
39881;DHT22;25554;44.954;10.068;2023-10-31T10:14:40;16.90;99.90
39881;DHT22;25554;44.954;10.068;2023-10-31T10:17:16;16.80;99.90
39881;DHT22;25554;44.954;10.068;2023-10-31T10:19:42;16.80;99.90
39881;DHT22;25554;44.954;10.068;2023-10-31T10:22:09;16.70;99.90
39881;DHT22;25554;44.954;10.068;2023-10-31T10:24:39;16.70;99.90
39881;DHT22;25554;44.954;10.068;2023-10-31T10:27:10;16.80;99.90
39881;DHT22;25554;44.954;10.068;2023-10-31T10:29:38;16.90;99.90
39881;DHT22;25554;44.954;10.068;2023-10-31T10:32:07;16.90;99.90
39881;DHT22;25554;44.954;10.068;2023-10-31T10:34:36;17.00;99.90
39881;DHT22;25554;44.954;10.068;2023-10-31T10:37:05;17.10;99.90
39881;DHT22;25554;44.954;10.068;2023-10-31T10:39:33;17.20;99.90
39881;DHT22;25554;44.954;10.068;2023-10-31T10:42:01;17.30;99.90
39881;DHT22;25554;44.954;10.068;2023-10-31T10:44:36;17.40;99.90
39881;DHT22;25554;44.954;10.068;2023-10-31T10:47:05;17.40;99.90
39881;DHT22;25554;44.954;10.068;2023-10-31T10:49:36;17.50;99.90
39881;DHT22;25554;44.954;10.068;2023-10-31T10:57:46;17.70;99.90
39881;DHT22;25554;44.954;10.068;2023-10-31T11:00:14;17.70;99.90
39881;DHT22;25554;44.954;10.068;2023-10-31T11:02:41;17.80;99.90
39881;DHT22;25554;44.954;10.068;2023-10-31T11:05:09;17.80;99.90
39881;DHT22;25554;44.954;10.068;2023-10-31T11:07:37;17.90;99.90
39881;DHT22;25554;44.954;10.068;2023-10-31T11:10:04;18.00;99.90
39881;DHT22;25554;44.954;10.068;2023-10-31T11:12:32;18.10;99.90
39881;DHT22;25554;44.954;10.068;2023-10-31T11:15:02;18.10;99.90
39881;DHT22;25554;44.954;10.068;2023-10-31T11:17:32;18.20;99.90
39881;DHT22;25554;44.954;10.068;2023-10-31T11:20:00;18.30;99.90
39881;DHT22;25554;44.954;10.068;2023-10-31T11:22:36;18.40;99.90
39881;DHT22;25554;44.954;10.068;2023-10-31T11:25:03;18.40;99.90
39881;DHT22;25554;44.954;10.068;2023-10-31T11:27:29;18.50;99.90
39881;DHT22;25554;44.954;10.068;2023-10-31T11:29:59;18.50;99.90
39881;DHT22;25554;44.954;10.068;2023-10-31T11:32:26;18.60;99.90
39881;DHT22;25554;44.954;10.068;2023-10-31T11:34:53;18.70;99.90
39881;DHT22;25554;44.954;10.068;2023-10-31T11:42:51;18.90;99.90
39881;DHT22;25554;44.954;10.068;2023-10-31T11:45:35;18.90;99.90
39881;DHT22;25554;44.954;10.068;2023-10-31T11:48:03;19.00;99.90
39881;DHT22;25554;44.954;10.068;2023-10-31T11:50:33;19.10;99.90
39881;DHT22;25554;44.954;10.068;2023-10-31T11:53:11;19.10;99.90
39881;DHT22;25554;44.954;10.068;2023-10-31T11:55:45;19.10;99.90
39881;DHT22;25554;44.954;10.068;2023-10-31T11:58:22;19.20;99.90
39881;DHT22;25554;44.954;10.068;2023-10-31T12:00:51;19.20;99.90
39881;DHT22;25554;44.954;10.068;2023-10-31T12:03:19;19.30;99.90
39881;DHT22;25554;44.954;10.068;2023-10-31T12:06:04;19.40;99.90
39881;DHT22;25554;44.954;10.068;2023-10-31T12:08:39;19.50;99.90
39881;DHT22;25554;44.954;10.068;2023-10-31T12:11:12;19.50;99.90
39881;DHT22;25554;44.954;10.068;2023-10-31T12:13:40;19.60;99.90
39881;DHT22;25554;44.954;10.068;2023-10-31T12:16:09;19.60;99.90
39881;DHT22;25554;44.954;10.068;2023-10-31T12:18:36;19.60;99.90
39881;DHT22;25554;44.954;10.068;2023-10-31T12:21:03;19.60;99.90
39881;DHT22;25554;44.954;10.068;2023-10-31T12:23:29;19.70;99.90
39881;DHT22;25554;44.954;10.068;2023-10-31T12:25:55;19.70;99.90
39881;DHT22;25554;44.954;10.068;2023-10-31T12:28:24;19.80;99.90
39881;DHT22;25554;44.954;10.068;2023-10-31T12:30:52;19.90;99.90
39881;DHT22;25554;44.954;10.068;2023-10-31T12:33:24;19.90;99.90
39881;DHT22;25554;44.954;10.068;2023-10-31T12:36:00;19.90;99.90
39881;DHT22;25554;44.954;10.068;2023-10-31T12:38:27;19.90;99.90
39881;DHT22;25554;44.954;10.068;2023-10-31T12:40:55;20.00;99.90
39881;DHT22;25554;44.954;10.068;2023-10-31T12:43:22;20.00;99.90
39881;DHT22;25554;44.954;10.068;2023-10-31T12:45:48;20.00;99.90
39881;DHT22;25554;44.954;10.068;2023-10-31T12:48:15;20.10;99.90
39881;DHT22;25554;44.954;10.068;2023-10-31T12:50:41;20.10;99.90
39881;DHT22;25554;44.954;10.068;2023-10-31T12:53:08;20.10;99.90
39881;DHT22;25554;44.954;10.068;2023-10-31T12:55:39;20.10;99.90
39881;DHT22;25554;44.954;10.068;2023-10-31T12:58:06;20.20;99.90
39881;DHT22;25554;44.954;10.068;2023-10-31T13:00:34;20.20;99.90
39881;DHT22;25554;44.954;10.068;2023-10-31T13:03:01;20.20;99.90
39881;DHT22;25554;44.954;10.068;2023-10-31T13:05:28;20.30;99.90
39881;DHT22;25554;44.954;10.068;2023-10-31T13:07:56;20.30;99.90
39881;DHT22;25554;44.954;10.068;2023-10-31T13:10:24;20.30;99.90
39881;DHT22;25554;44.954;10.068;2023-10-31T13:12:51;20.40;99.90
39881;DHT22;25554;44.954;10.068;2023-10-31T13:15:20;20.40;99.90
39881;DHT22;25554;44.954;10.068;2023-10-31T13:17:47;20.40;99.90
39881;DHT22;25554;44.954;10.068;2023-10-31T13:20:15;20.40;99.90
39881;DHT22;25554;44.954;10.068;2023-10-31T13:22:42;20.50;99.90
39881;DHT22;25554;44.954;10.068;2023-10-31T13:25:10;20.50;99.90
39881;DHT22;25554;44.954;10.068;2023-10-31T13:27:38;20.60;99.90
39881;DHT22;25554;44.954;10.068;2023-10-31T13:30:05;20.60;99.90
39881;DHT22;25554;44.954;10.068;2023-10-31T13:32:32;20.60;99.90
39881;DHT22;25554;44.954;10.068;2023-10-31T13:34:58;20.70;99.90
39881;DHT22;25554;44.954;10.068;2023-10-31T13:37:25;20.70;99.90
39881;DHT22;25554;44.954;10.068;2023-10-31T13:39:51;20.70;99.90
39881;DHT22;25554;44.954;10.068;2023-10-31T13:42:17;20.60;99.90
39881;DHT22;25554;44.954;10.068;2023-10-31T13:44:44;20.60;99.90
39881;DHT22;25554;44.954;10.068;2023-10-31T13:47:10;20.60;99.90
39881;DHT22;25554;44.954;10.068;2023-10-31T13:49:37;20.50;99.90
39881;DHT22;25554;44.954;10.068;2023-10-31T13:52:04;20.60;99.90
39881;DHT22;25554;44.954;10.068;2023-10-31T13:54:34;20.60;99.90
39881;DHT22;25554;44.954;10.068;2023-10-31T13:57:01;20.50;99.90
39881;DHT22;25554;44.954;10.068;2023-10-31T13:59:27;20.50;99.90
39881;DHT22;25554;44.954;10.068;2023-10-31T14:01:53;20.60;99.90
39881;DHT22;25554;44.954;10.068;2023-10-31T14:04:20;20.50;99.90
39881;DHT22;25554;44.954;10.068;2023-10-31T14:06:46;20.50;99.90
39881;DHT22;25554;44.954;10.068;2023-10-31T14:09:13;20.50;99.90
39881;DHT22;25554;44.954;10.068;2023-10-31T14:11:40;20.50;99.90
39881;DHT22;25554;44.954;10.068;2023-10-31T14:14:07;20.40;99.90
39881;DHT22;25554;44.954;10.068;2023-10-31T14:16:39;20.40;99.90
39881;DHT22;25554;44.954;10.068;2023-10-31T14:19:06;20.40;99.90
39881;DHT22;25554;44.954;10.068;2023-10-31T14:21:34;20.40;99.90
39881;DHT22;25554;44.954;10.068;2023-10-31T14:24:01;20.30;99.90
39881;DHT22;25554;44.954;10.068;2023-10-31T14:26:30;20.30;99.90
39881;DHT22;25554;44.954;10.068;2023-10-31T14:28:56;20.30;99.90
39881;DHT22;25554;44.954;10.068;2023-10-31T14:31:22;20.30;99.90
39881;DHT22;25554;44.954;10.068;2023-10-31T14:33:49;20.30;99.90
39881;DHT22;25554;44.954;10.068;2023-10-31T14:36:15;20.20;99.90
39881;DHT22;25554;44.954;10.068;2023-10-31T14:38:41;20.20;99.90
39881;DHT22;25554;44.954;10.068;2023-10-31T14:41:08;20.10;99.90
39881;DHT22;25554;44.954;10.068;2023-10-31T14:43:35;20.10;99.90
39881;DHT22;25554;44.954;10.068;2023-10-31T14:46:02;20.10;99.90
39881;DHT22;25554;44.954;10.068;2023-10-31T14:48:28;20.10;99.90
39881;DHT22;25554;44.954;10.068;2023-10-31T14:50:55;20.00;99.90
39881;DHT22;25554;44.954;10.068;2023-10-31T14:53:23;19.90;99.90
39881;DHT22;25554;44.954;10.068;2023-10-31T14:55:49;19.80;99.90
39881;DHT22;25554;44.954;10.068;2023-10-31T14:58:15;19.70;99.90
39881;DHT22;25554;44.954;10.068;2023-10-31T15:00:42;19.50;99.90
39881;DHT22;25554;44.954;10.068;2023-10-31T15:03:08;19.40;99.90
39881;DHT22;25554;44.954;10.068;2023-10-31T15:05:34;19.30;99.90
39881;DHT22;25554;44.954;10.068;2023-10-31T15:08:00;19.20;99.90
39881;DHT22;25554;44.954;10.068;2023-10-31T15:10:27;19.10;99.90
39881;DHT22;25554;44.954;10.068;2023-10-31T15:12:55;19.00;99.90
39881;DHT22;25554;44.954;10.068;2023-10-31T15:15:21;18.90;99.90
39881;DHT22;25554;44.954;10.068;2023-10-31T15:17:49;18.80;99.90
39881;DHT22;25554;44.954;10.068;2023-10-31T15:20:18;18.60;99.90
39881;DHT22;25554;44.954;10.068;2023-10-31T15:22:44;18.50;99.90
39881;DHT22;25554;44.954;10.068;2023-10-31T15:25:11;18.40;99.90
39881;DHT22;25554;44.954;10.068;2023-10-31T15:27:38;18.30;99.90